Time;durP1;ratioP1;P1;durP2;ratioP2;P2;SDS_P1;SDS_P2;PMS_P1;PMS_P2;Temp;Humidity;BMP_temperature;BMP_pressure;BME280_temperature;BME280_humidity;BME280_pressure;Samples;Min_cycle;Max_cycle;Signal;HPM_P1;HPM_P2
2021/06/19 00:02:18;;;;;;;8.30;7.43;;;22.50;99.90;;;;;;4962326;28;20186;-79
2021/06/19 00:04:44;;;;;;;10.70;7.40;;;22.50;99.90;;;;;;4979212;28;20176;-79
2021/06/19 00:07:09;;;;;;;8.53;6.83;;;22.50;99.90;;;;;;4961826;28;20231;-79
2021/06/19 00:09:36;;;;;;;9.27;7.30;;;22.50;99.90;;;;;;4962147;28;20208;-79
2021/06/19 00:12:03;;;;;;;12.80;7.40;;;22.50;99.90;;;;;;4979731;28;20179;-79
2021/06/19 00:14:29;;;;;;;10.47;7.13;;;22.50;99.90;;;;;;4979755;28;20188;-79
2021/06/19 00:16:55;;;;;;;10.00;7.50;;;22.50;99.90;;;;;;4961817;28;20202;-78
2021/06/19 00:19:21;;;;;;;11.23;6.80;;;22.50;99.90;;;;;;4979004;28;20181;-79
2021/06/19 00:21:47;;;;;;;10.50;7.10;;;22.50;99.90;;;;;;4961312;28;20267;-79
2021/06/19 00:24:23;;;;;;;10.23;7.23;;;22.50;99.90;;;;;;4979464;28;20578;-79
2021/06/19 00:26:50;;;;;;;8.20;7.40;;;22.50;99.90;;;;;;4962031;28;20202;-79
2021/06/19 00:29:16;;;;;;;10.97;7.57;;;22.50;99.90;;;;;;4962033;28;20235;-79
2021/06/19 00:31:45;;;;;;;9.30;7.67;;;22.50;99.90;;;;;;4979056;28;20180;-78
2021/06/19 00:34:12;;;;;;;10.23;7.20;;;22.50;99.90;;;;;;4979441;28;20635;-78
2021/06/19 00:36:38;;;;;;;10.17;7.67;;;22.50;99.90;;;;;;4961973;28;20200;-79
2021/06/19 00:39:05;;;;;;;8.77;6.97;;;22.50;99.90;;;;;;4979368;28;20179;-79
2021/06/19 00:41:34;;;;;;;10.80;8.27;;;22.50;99.90;;;;;;4979211;28;20531;-79
2021/06/19 00:44:01;;;;;;;10.67;7.53;;;22.50;99.90;;;;;;4962170;28;20179;-79
2021/06/19 00:46:26;;;;;;;10.90;7.10;;;22.40;99.90;;;;;;4961624;28;20181;-79
2021/06/19 00:48:52;;;;;;;13.80;8.27;;;22.40;99.90;;;;;;4961742;28;20227;-78
2021/06/19 00:51:18;;;;;;;11.10;7.60;;;22.40;99.90;;;;;;4962268;28;20172;-79
2021/06/19 00:53:43;;;;;;;8.50;7.27;;;22.40;99.90;;;;;;4979740;28;20200;-78
2021/06/19 00:56:09;;;;;;;7.43;6.60;;;22.40;99.90;;;;;;4978751;28;20175;-79
2021/06/19 00:58:35;;;;;;;10.63;6.53;;;22.40;99.90;;;;;;4961778;28;20551;-79
2021/06/19 01:01:01;;;;;;;12.27;7.30;;;22.40;99.90;;;;;;4978146;28;20175;-79
2021/06/19 01:03:27;;;;;;;9.50;7.00;;;22.40;99.90;;;;;;4961409;28;20191;-80
2021/06/19 01:05:53;;;;;;;11.67;7.27;;;22.40;99.90;;;;;;4960795;28;20187;-79
2021/06/19 01:08:18;;;;;;;7.67;6.97;;;22.40;99.90;;;;;;4961180;28;20219;-79
2021/06/19 01:10:44;;;;;;;8.67;7.20;;;22.30;99.90;;;;;;4978932;28;20182;-79
2021/06/19 01:13:12;;;;;;;10.13;6.80;;;22.40;99.90;;;;;;4961058;28;20187;-79
2021/06/19 01:15:37;;;;;;;9.23;7.27;;;22.40;99.90;;;;;;4960787;28;20224;-78
2021/06/19 01:18:03;;;;;;;8.67;7.13;;;22.40;99.90;;;;;;4981515;28;20281;-80
2021/06/19 01:20:35;;;;;;;8.23;6.77;;;22.30;99.90;;;;;;4981746;28;20180;-79
2021/06/19 01:23:01;;;;;;;8.37;6.70;;;22.30;99.90;;;;;;4982881;28;20160;-79
2021/06/19 01:25:32;;;;;;;9.80;6.27;;;22.30;99.90;;;;;;4982541;28;20191;-79
2021/06/19 01:27:58;;;;;;;11.37;7.13;;;22.30;99.90;;;;;;4981855;28;20208;-79
2021/06/19 01:30:26;;;;;;;12.97;6.90;;;22.30;99.90;;;;;;4981806;28;20177;-78
2021/06/19 01:32:53;;;;;;;11.60;7.17;;;22.30;99.90;;;;;;4982034;28;20184;-79
2021/06/19 01:35:20;;;;;;;12.53;7.13;;;22.30;99.90;;;;;;4982360;28;20216;-78
2021/06/19 01:37:49;;;;;;;8.50;6.50;;;22.30;99.90;;;;;;4964420;28;20231;-78
2021/06/19 01:40:17;;;;;;;8.13;6.83;;;22.30;99.90;;;;;;4964157;28;20184;-78
2021/06/19 01:42:46;;;;;;;9.57;6.40;;;22.30;99.90;;;;;;4964539;28;20530;-78
2021/06/19 01:45:17;;;;;;;9.17;6.30;;;22.30;99.90;;;;;;4964044;28;20180;-78
2021/06/19 01:47:44;;;;;;;7.67;6.87;;;22.20;99.90;;;;;;4982168;28;20210;-78
2021/06/19 01:50:13;;;;;;;15.33;7.73;;;22.20;99.90;;;;;;4980802;28;20176;-79
2021/06/19 01:52:39;;;;;;;11.30;6.60;;;22.20;99.90;;;;;;4981642;28;20199;-79
2021/06/19 01:55:05;;;;;;;9.13;7.00;;;22.20;99.90;;;;;;4964151;28;20172;-79
2021/06/19 01:57:31;;;;;;;10.87;7.23;;;22.20;99.90;;;;;;4981453;28;20199;-79
2021/06/19 02:00:17;;;;;;;9.23;6.33;;;22.20;99.90;;;;;;4981545;28;20180;-78
2021/06/19 02:02:43;;;;;;;11.43;7.10;;;22.20;99.90;;;;;;4964877;28;20184;-79
2021/06/19 02:05:11;;;;;;;13.70;7.10;;;22.20;99.90;;;;;;4964037;28;20180;-79
2021/06/19 02:07:53;;;;;;;9.80;6.93;;;22.10;99.90;;;;;;4981278;28;20204;-79
2021/06/19 02:10:21;;;;;;;10.83;6.80;;;22.10;99.90;;;;;;4981362;28;20191;-78
2021/06/19 02:12:47;;;;;;;10.37;7.50;;;22.10;99.90;;;;;;4981436;28;20643;-78
2021/06/19 02:15:14;;;;;;;8.97;6.13;;;22.10;99.90;;;;;;4981134;28;20188;-79
2021/06/19 02:17:39;;;;;;;16.90;7.70;;;22.00;99.90;;;;;;4981580;28;20196;-79
2021/06/19 02:20:07;;;;;;;13.00;7.17;;;22.00;99.90;;;;;;4963806;28;20250;-79
2021/06/19 02:22:34;;;;;;;12.07;6.87;;;22.00;99.90;;;;;;4981417;28;20184;-79
2021/06/19 02:25:03;;;;;;;8.33;6.67;;;22.00;99.90;;;;;;4964687;28;20181;-79
2021/06/19 02:27:29;;;;;;;9.33;6.60;;;22.00;99.90;;;;;;4980692;28;20200;-79
2021/06/19 02:29:54;;;;;;;9.80;6.80;;;21.90;99.90;;;;;;4966974;28;20201;-78
2021/06/19 02:32:20;;;;;;;7.83;7.03;;;21.90;99.90;;;;;;4989558;28;20177;-78
2021/06/19 02:34:46;;;;;;;7.57;6.40;;;21.90;99.90;;;;;;4983560;28;20174;-79
2021/06/19 02:37:11;;;;;;;9.10;7.23;;;21.90;99.90;;;;;;4980184;28;20370;-79
2021/06/19 02:39:37;;;;;;;10.23;6.97;;;21.80;99.90;;;;;;4980674;28;20180;-79
2021/06/19 02:42:03;;;;;;;9.57;7.03;;;21.80;99.90;;;;;;4980829;28;20179;-79
2021/06/19 02:44:28;;;;;;;9.30;7.30;;;21.70;99.90;;;;;;4980635;28;20181;-79
2021/06/19 02:46:54;;;;;;;8.70;6.60;;;21.70;99.90;;;;;;4962510;28;20200;-79
2021/06/19 02:49:20;;;;;;;11.60;7.53;;;21.60;99.90;;;;;;4962972;28;20213;-79
2021/06/19 02:51:45;;;;;;;10.70;6.80;;;21.60;99.90;;;;;;4980062;28;20178;-78
2021/06/19 02:54:11;;;;;;;10.53;6.70;;;21.50;99.90;;;;;;4980591;28;20182;-78
2021/06/19 02:56:36;;;;;;;15.27;7.70;;;21.50;99.90;;;;;;4980277;28;20206;-79
2021/06/19 02:59:02;;;;;;;7.87;6.27;;;21.40;99.90;;;;;;4962590;28;20195;-79
2021/06/19 03:01:28;;;;;;;9.37;6.63;;;21.40;99.90;;;;;;4962348;28;20187;-78
2021/06/19 03:03:53;;;;;;;7.60;6.80;;;21.40;99.90;;;;;;4962513;28;20222;-79
2021/06/19 03:06:19;;;;;;;12.70;6.70;;;21.30;99.90;;;;;;4980093;28;20213;-78
2021/06/19 03:08:44;;;;;;;13.33;6.90;;;21.30;99.90;;;;;;4962389;28;20201;-78
2021/06/19 03:11:10;;;;;;;9.80;7.20;;;21.20;99.90;;;;;;4979977;28;20182;-79
2021/06/19 03:13:36;;;;;;;10.30;7.10;;;21.20;99.90;;;;;;4962242;28;20193;-79
2021/06/19 03:16:02;;;;;;;14.27;6.80;;;21.10;99.90;;;;;;4979700;28;20301;-79
2021/06/19 03:18:28;;;;;;;7.90;6.93;;;21.10;99.90;;;;;;4962293;28;20277;-79
2021/06/19 03:20:54;;;;;;;9.97;7.67;;;21.10;99.90;;;;;;4962272;28;20640;-79
2021/06/19 03:23:20;;;;;;;8.50;7.13;;;21.10;99.90;;;;;;4979563;28;20187;-79
2021/06/19 03:25:46;;;;;;;12.07;7.07;;;21.00;99.90;;;;;;4979648;28;20633;-79
2021/06/19 03:28:13;;;;;;;11.80;7.07;;;21.00;99.90;;;;;;4961996;28;20308;-79
2021/06/19 03:30:42;;;;;;;10.93;7.00;;;21.00;99.90;;;;;;4961787;28;20189;-79
2021/06/19 03:33:08;;;;;;;15.03;7.87;;;21.00;99.90;;;;;;4979095;28;20578;-79
2021/06/19 03:35:35;;;;;;;9.00;6.70;;;20.90;99.90;;;;;;4980266;28;20175;-79
2021/06/19 03:38:01;;;;;;;9.80;7.03;;;21.00;99.90;;;;;;4979204;28;20665;-79
2021/06/19 03:40:28;;;;;;;8.53;6.77;;;20.90;99.90;;;;;;4961144;28;20217;-79
2021/06/19 03:42:54;;;;;;;11.83;7.23;;;20.90;99.90;;;;;;4979072;28;20631;-79
2021/06/19 03:45:23;;;;;;;8.00;7.07;;;20.90;99.90;;;;;;4961351;28;20210;-79
2021/06/19 03:47:48;;;;;;;9.90;7.57;;;20.90;99.90;;;;;;4961645;28;20219;-79
2021/06/19 03:50:17;;;;;;;9.77;7.83;;;20.90;99.90;;;;;;4961485;28;20550;-78
2021/06/19 03:52:43;;;;;;;8.70;7.40;;;20.90;99.90;;;;;;4961204;28;20319;-79
2021/06/19 03:55:10;;;;;;;12.77;7.47;;;20.90;99.90;;;;;;4961876;28;20221;-79
2021/06/19 03:57:36;;;;;;;10.37;7.67;;;20.90;99.90;;;;;;4978874;28;20204;-79
2021/06/19 04:00:05;;;;;;;11.17;6.93;;;20.90;99.90;;;;;;4978181;28;20178;-79
2021/06/19 04:02:30;;;;;;;10.80;7.63;;;20.90;99.90;;;;;;4961051;28;20189;-79
2021/06/19 04:04:56;;;;;;;9.67;7.40;;;20.90;99.90;;;;;;4961154;28;20724;-79
2021/06/19 04:07:22;;;;;;;11.73;7.90;;;20.90;99.90;;;;;;4962005;28;20673;-79
2021/06/19 04:09:49;;;;;;;11.53;7.60;;;20.90;99.90;;;;;;4961014;28;20178;-79
2021/06/19 04:12:16;;;;;;;10.93;8.40;;;20.90;99.90;;;;;;4961338;28;20268;-79
2021/06/19 04:14:42;;;;;;;12.37;7.43;;;20.90;99.90;;;;;;4977371;28;20194;-79
2021/06/19 04:17:09;;;;;;;9.77;7.67;;;20.80;99.90;;;;;;4979139;28;20190;-79
2021/06/19 04:19:37;;;;;;;13.33;7.23;;;20.80;99.90;;;;;;4961548;28;20208;-79
2021/06/19 04:22:04;;;;;;;10.63;8.27;;;20.80;99.90;;;;;;4961169;28;20222;-79
2021/06/19 04:24:29;;;;;;;9.47;7.47;;;20.80;99.90;;;;;;4978200;28;20178;-79
2021/06/19 04:26:55;;;;;;;11.00;7.17;;;20.80;99.90;;;;;;4978500;28;20193;-79
2021/06/19 04:29:21;;;;;;;11.07;8.00;;;20.80;99.90;;;;;;4978533;28;20203;-79
2021/06/19 04:31:46;;;;;;;12.03;7.97;;;20.80;99.90;;;;;;4961420;28;20210;-79
2021/06/19 04:34:12;;;;;;;10.20;7.13;;;20.80;99.90;;;;;;4978686;28;20209;-78
2021/06/19 04:36:38;;;;;;;9.00;8.10;;;20.80;99.90;;;;;;4979247;28;20628;-79
2021/06/19 04:39:04;;;;;;;9.87;7.37;;;20.80;99.90;;;;;;4961348;28;20182;-79
2021/06/19 04:41:43;;;;;;;9.67;7.43;;;20.80;99.90;;;;;;4978668;28;20174;-79
2021/06/19 04:46:51;;;;;;;11.43;7.17;;;20.80;99.90;;;;;;4979112;28;20290;-79
2021/06/19 04:49:18;;;;;;;10.90;6.87;;;20.80;99.90;;;;;;4961018;28;20217;-79
2021/06/19 04:51:44;;;;;;;10.20;8.20;;;20.80;99.90;;;;;;4962166;28;20182;-79
2021/06/19 04:54:10;;;;;;;10.77;7.03;;;20.90;99.90;;;;;;4982311;28;20648;-79
2021/06/19 04:56:38;;;;;;;13.03;7.50;;;20.90;99.90;;;;;;4965221;28;20205;-79
2021/06/19 04:59:04;;;;;;;10.37;7.90;;;21.00;99.90;;;;;;4965205;28;20183;-79
2021/06/19 05:01:30;;;;;;;15.37;8.40;;;21.10;99.90;;;;;;4982300;28;20182;-79
2021/06/19 05:03:55;;;;;;;12.30;7.37;;;21.20;99.90;;;;;;4982565;28;20184;-79
2021/06/19 05:06:21;;;;;;;12.70;7.47;;;21.30;99.90;;;;;;4965550;28;20285;-79
2021/06/19 05:08:47;;;;;;;8.60;6.57;;;21.40;99.90;;;;;;4982015;28;20601;-78
2021/06/19 05:11:13;;;;;;;8.30;6.37;;;21.50;99.90;;;;;;4964679;28;20186;-79
2021/06/19 05:13:38;;;;;;;12.77;7.70;;;21.50;99.90;;;;;;4982530;28;20201;-80
2021/06/19 05:16:04;;;;;;;8.10;6.10;;;21.60;99.90;;;;;;4982710;28;20541;-79
2021/06/19 05:18:30;;;;;;;11.97;7.60;;;21.70;99.90;;;;;;4982444;28;20552;-79
2021/06/19 05:20:56;;;;;;;10.47;6.73;;;21.70;99.90;;;;;;4989234;28;20670;-78
2021/06/19 05:23:21;;;;;;;11.00;7.10;;;21.80;99.90;;;;;;4989057;28;20642;-79
2021/06/19 05:25:47;;;;;;;7.60;6.77;;;21.90;99.90;;;;;;4963239;28;20237;-79
2021/06/19 05:28:17;;;;;;;13.53;7.30;;;21.90;99.90;;;;;;4962419;28;20581;-79
2021/06/19 05:30:42;;;;;;;10.93;7.10;;;22.00;99.90;;;;;;4979901;28;20219;-79
2021/06/19 05:33:08;;;;;;;15.67;7.13;;;22.00;99.90;;;;;;4979998;28;20207;-79
2021/06/19 05:35:34;;;;;;;13.40;6.57;;;22.00;99.90;;;;;;4962519;28;20236;-79
2021/06/19 05:37:59;;;;;;;8.13;6.37;;;22.00;99.90;;;;;;4962310;28;20671;-79
2021/06/19 05:40:25;;;;;;;8.57;6.97;;;22.10;99.90;;;;;;4962111;28;20190;-78
2021/06/19 05:42:53;;;;;;;8.60;6.70;;;22.10;99.90;;;;;;4980223;28;20544;-79
2021/06/19 05:45:19;;;;;;;10.10;6.90;;;22.20;99.90;;;;;;4980203;28;20214;-79
2021/06/19 05:47:44;;;;;;;12.90;7.43;;;22.20;99.90;;;;;;4979936;28;20267;-79
2021/06/19 05:50:11;;;;;;;9.53;6.87;;;22.20;99.90;;;;;;4979857;28;20230;-79
2021/06/19 05:52:37;;;;;;;11.67;6.40;;;22.20;99.90;;;;;;4980005;28;20180;-79
2021/06/19 05:55:04;;;;;;;12.33;6.93;;;22.30;99.90;;;;;;4979737;28;20180;-79
2021/06/19 05:57:30;;;;;;;11.87;6.80;;;22.40;99.90;;;;;;4980279;28;20208;-79
2021/06/19 05:59:56;;;;;;;11.60;6.70;;;22.50;99.90;;;;;;4979953;28;20214;-78
2021/06/19 06:02:21;;;;;;;13.83;7.23;;;22.50;99.90;;;;;;4962271;28;20198;-79
2021/06/19 06:04:47;;;;;;;12.10;7.23;;;22.60;99.90;;;;;;4979886;28;20193;-78
2021/06/19 06:07:13;;;;;;;11.87;6.77;;;22.60;99.90;;;;;;4962317;28;20558;-78
2021/06/19 06:09:38;;;;;;;10.83;7.03;;;22.70;99.90;;;;;;4962467;28;20295;-79
2021/06/19 06:12:08;;;;;;;9.40;7.00;;;22.70;99.90;;;;;;4980007;28;20259;-79
2021/06/19 06:14:34;;;;;;;11.83;6.77;;;22.80;99.90;;;;;;4979446;28;20247;-79
2021/06/19 06:17:00;;;;;;;15.87;7.30;;;22.70;99.90;;;;;;4979371;28;20351;-79
2021/06/19 06:19:25;;;;;;;12.90;6.90;;;22.80;99.90;;;;;;4980027;28;20619;-78
2021/06/19 06:21:51;;;;;;;9.20;6.73;;;22.80;99.90;;;;;;4979274;28;20180;-78
2021/06/19 06:24:17;;;;;;;10.00;6.53;;;22.80;99.90;;;;;;4961606;28;20534;-79
2021/06/19 06:26:44;;;;;;;10.83;7.77;;;22.80;99.90;;;;;;4979647;28;20223;-78
2021/06/19 06:29:09;;;;;;;11.30;7.17;;;22.90;99.90;;;;;;4962183;28;20211;-79
2021/06/19 06:31:35;;;;;;;13.77;7.50;;;23.00;99.90;;;;;;4978912;28;20180;-78
2021/06/19 06:34:01;;;;;;;11.80;6.73;;;23.10;99.90;;;;;;4961668;28;20179;-79
2021/06/19 06:36:26;;;;;;;16.60;7.20;;;23.20;99.90;;;;;;4978850;28;20658;-78
2021/06/19 06:38:52;;;;;;;9.57;6.90;;;23.30;99.90;;;;;;4979353;28;20184;-78
2021/06/19 06:41:18;;;;;;;15.47;6.80;;;23.40;99.90;;;;;;4961671;28;20280;-78
2021/06/19 06:43:44;;;;;;;9.80;6.83;;;23.50;99.90;;;;;;4978641;28;20180;-79
2021/06/19 06:46:09;;;;;;;11.23;6.77;;;23.50;99.90;;;;;;4961432;28;20180;-78
2021/06/19 06:48:35;;;;;;;10.97;7.40;;;23.60;99.90;;;;;;4979336;28;20204;-78
2021/06/19 06:51:01;;;;;;;8.07;7.27;;;23.80;99.90;;;;;;4962964;28;20180;-78
2021/06/19 06:53:26;;;;;;;10.47;7.10;;;23.90;99.90;;;;;;4980011;28;20230;-78
2021/06/19 06:55:52;;;;;;;12.10;7.27;;;24.00;99.90;;;;;;4978890;28;20180;-78
2021/06/19 06:58:18;;;;;;;9.20;6.20;;;24.00;99.90;;;;;;4961334;28;20214;-79
2021/06/19 07:00:43;;;;;;;11.03;6.97;;;24.10;99.90;;;;;;4961187;28;20192;-78
2021/06/19 07:03:09;;;;;;;7.37;6.57;;;24.10;99.90;;;;;;4978581;28;20187;-78
2021/06/19 07:05:35;;;;;;;9.50;6.37;;;24.20;99.90;;;;;;4960975;28;20188;-79
2021/06/19 07:08:00;;;;;;;10.53;6.73;;;24.20;99.90;;;;;;4978819;28;20219;-79
2021/06/19 07:10:26;;;;;;;14.20;7.37;;;24.20;99.90;;;;;;4961415;28;20191;-78
2021/06/19 07:12:52;;;;;;;8.37;6.73;;;24.30;99.90;;;;;;4961488;28;20176;-78
2021/06/19 07:15:18;;;;;;;12.10;6.47;;;24.30;99.90;;;;;;4978146;28;20218;-79
2021/06/19 07:17:45;;;;;;;12.97;6.60;;;24.40;99.90;;;;;;4978458;28;20251;-79
2021/06/19 07:20:12;;;;;;;12.47;6.10;;;24.40;99.90;;;;;;4961104;28;20187;-79
2021/06/19 07:22:38;;;;;;;12.50;6.10;;;24.50;99.90;;;;;;4979738;28;20177;-77
2021/06/19 07:25:06;;;;;;;10.00;5.90;;;24.50;99.90;;;;;;4978695;28;20180;-78
2021/06/19 07:27:31;;;;;;;8.90;5.87;;;24.60;99.90;;;;;;4978465;28;20558;-78
2021/06/19 07:29:57;;;;;;;11.00;5.97;;;24.70;99.90;;;;;;4978080;28;20190;-79
2021/06/19 07:32:23;;;;;;;9.57;5.37;;;24.80;99.90;;;;;;4978961;28;20176;-79
2021/06/19 07:34:50;;;;;;;10.83;5.60;;;24.90;99.90;;;;;;4961475;28;20212;-79
2021/06/19 07:37:15;;;;;;;10.53;4.63;;;25.00;99.90;;;;;;4961173;28;20205;-79
2021/06/19 07:39:41;;;;;;;8.03;4.40;;;25.20;99.90;;;;;;4978631;28;20224;-78
2021/06/19 07:42:07;;;;;;;8.60;3.57;;;25.20;99.90;;;;;;4979316;28;20177;-79
2021/06/19 07:44:33;;;;;;;12.10;4.07;;;25.30;99.90;;;;;;4978753;28;20588;-79
2021/06/19 07:46:59;;;;;;;9.80;4.23;;;25.50;99.90;;;;;;4961223;28;20215;-78
2021/06/19 07:49:26;;;;;;;8.87;3.60;;;25.50;99.90;;;;;;4979729;28;20204;-79
2021/06/19 07:51:52;;;;;;;10.77;4.07;;;25.60;99.90;;;;;;4961401;28;20545;-79
2021/06/19 07:54:18;;;;;;;9.13;4.00;;;25.70;99.90;;;;;;4979819;28;20184;-79
2021/06/19 07:56:43;;;;;;;12.77;5.10;;;25.80;99.90;;;;;;4962913;28;20198;-79
2021/06/19 07:59:09;;;;;;;11.27;4.53;;;25.80;99.90;;;;;;4962505;28;20197;-79
2021/06/19 08:01:35;;;;;;;9.40;3.70;;;25.80;99.90;;;;;;4979586;28;20212;-79
2021/06/19 08:04:00;;;;;;;10.83;4.33;;;25.90;99.90;;;;;;4978600;28;20622;-80
2021/06/19 08:06:26;;;;;;;11.33;4.30;;;25.90;99.90;;;;;;4962788;28;20187;-79
2021/06/19 08:08:54;;;;;;;11.70;4.07;;;26.00;99.90;;;;;;4981018;28;20226;-84
2021/06/19 08:11:26;;;;;;;14.93;3.90;;;26.00;99.90;;;;;;4996803;28;20155;-81
2021/06/19 08:13:53;;;;;;;15.30;4.40;;;26.10;99.90;;;;;;4978573;28;20191;-81
2021/06/19 08:16:20;;;;;;;12.40;3.90;;;26.30;99.90;;;;;;4978493;28;20164;-80
2021/06/19 08:18:46;;;;;;;12.37;3.73;;;26.40;99.90;;;;;;4977252;28;20178;-79
2021/06/19 08:21:13;;;;;;;11.27;3.73;;;26.50;99.90;;;;;;4977934;28;20207;-79
2021/06/19 08:23:39;;;;;;;12.73;4.17;;;26.60;99.90;;;;;;4977623;28;20263;-80
2021/06/19 08:26:05;;;;;;;10.60;3.90;;;26.80;99.90;;;;;;4960608;28;20681;-82
2021/06/19 08:28:33;;;;;;;15.00;4.50;;;26.80;99.90;;;;;;4963451;28;20207;-77
2021/06/19 08:30:58;;;;;;;11.33;4.60;;;26.90;99.90;;;;;;4981441;28;20175;-79
2021/06/19 08:33:24;;;;;;;9.10;4.10;;;27.00;99.90;;;;;;4964302;28;20177;-79
2021/06/19 08:35:50;;;;;;;12.47;4.47;;;27.00;99.90;;;;;;4981595;28;20173;-80
2021/06/19 08:38:15;;;;;;;7.93;3.70;;;27.20;99.90;;;;;;4962890;28;20200;-80
2021/06/19 08:40:41;;;;;;;9.30;4.00;;;27.20;99.90;;;;;;4980646;28;20211;-81
2021/06/19 08:43:07;;;;;;;11.30;4.10;;;27.20;99.90;;;;;;4952732;29;20190;-79
2021/06/19 08:45:34;;;;;;;8.40;3.20;;;27.20;99.90;;;;;;4961603;29;20193;-79
2021/06/19 08:48:01;;;;;;;10.33;3.70;;;27.30;99.90;;;;;;4943562;29;20222;-79
2021/06/19 08:50:28;;;;;;;10.77;4.37;;;27.30;99.90;;;;;;4960443;29;20170;-79
2021/06/19 08:52:54;;;;;;;15.03;4.03;;;27.40;99.90;;;;;;4960727;29;20206;-80
2021/06/19 08:55:19;;;;;;;11.17;3.53;;;27.50;99.90;;;;;;4943599;29;20184;-79
2021/06/19 08:57:46;;;;;;;11.27;3.20;;;27.50;99.90;;;;;;4943584;29;20254;-79
2021/06/19 09:00:13;;;;;;;11.80;3.27;;;27.60;99.90;;;;;;4943854;29;20196;-80
2021/06/19 09:02:39;;;;;;;8.03;3.47;;;27.80;99.90;;;;;;4961343;29;20184;-79
2021/06/19 09:05:12;;;;;;;8.37;3.77;;;27.80;99.90;;;;;;4943690;29;20211;-79
2021/06/19 09:07:45;;;;;;;11.60;3.37;;;27.90;99.90;;;;;;4961294;29;20205;-80
2021/06/19 09:10:26;;;;;;;10.03;3.47;;;28.00;99.90;;;;;;4961143;29;20252;-79
2021/06/19 09:12:57;;;;;;;10.53;3.47;;;28.10;99.90;;;;;;4944223;29;20203;-80
2021/06/19 09:15:24;;;;;;;11.60;3.40;;;28.20;99.90;;;;;;4961355;29;20264;-81
2021/06/19 09:18:16;;;;;;;10.43;3.37;;;28.30;99.90;;;;;;4943821;29;20289;-81
2021/06/19 09:20:49;;;;;;;15.07;3.70;;;28.20;99.90;;;;;;4944034;29;20232;-81
2021/06/19 09:23:16;;;;;;;15.07;3.87;;;28.20;99.90;;;;;;4943973;29;20630;-80
2021/06/19 09:25:42;;;;;;;15.00;3.87;;;28.20;99.90;;;;;;4941979;29;20181;-81
2021/06/19 09:28:10;;;;;;;11.17;3.87;;;28.20;99.90;;;;;;4943758;29;20693;-81
2021/06/19 09:30:37;;;;;;;10.97;3.57;;;28.20;99.90;;;;;;4961132;29;20173;-81
2021/06/19 09:33:07;;;;;;;8.90;3.47;;;28.30;99.90;;;;;;4943969;29;20193;-81
2021/06/19 09:35:35;;;;;;;6.80;3.47;;;28.50;99.90;;;;;;4961655;29;20543;-80
2021/06/19 09:38:10;;;;;;;11.83;3.73;;;28.80;99.90;;;;;;4960989;28;20546;-80
2021/06/19 09:40:39;;;;;;;16.60;4.33;;;28.90;99.90;;;;;;4961434;29;20160;-81
2021/06/19 09:43:12;;;;;;;11.97;4.00;;;29.00;99.90;;;;;;4944600;29;20183;-81
2021/06/19 09:45:39;;;;;;;7.47;3.60;;;29.10;99.90;;;;;;4944758;29;20189;-82
2021/06/19 09:48:21;;;;;;;19.57;3.90;;;29.20;99.90;;;;;;4944566;29;20212;-81
2021/06/19 09:50:46;;;;;;;16.10;4.67;;;29.20;99.90;;;;;;4944148;29;20256;-81
2021/06/19 09:53:13;;;;;;;9.67;3.80;;;29.30;99.90;;;;;;4943925;29;20217;-81
2021/06/19 09:56:09;;;;;;;10.93;4.03;;;29.40;99.90;;;;;;4961649;29;20559;-82
2021/06/19 09:58:45;;;;;;;8.23;3.90;;;29.40;99.90;;;;;;4962151;29;20647;-81
2021/06/19 10:01:18;;;;;;;9.67;3.80;;;29.40;99.90;;;;;;4961527;29;20639;-81
2021/06/19 10:03:56;;;;;;;16.20;4.63;;;29.50;99.90;;;;;;4961756;29;20243;-81
2021/06/19 10:06:23;;;;;;;13.77;4.33;;;29.60;99.90;;;;;;4945046;29;20201;-81
2021/06/19 10:08:49;;;;;;;8.40;4.07;;;29.80;99.90;;;;;;4962171;29;20683;-81
2021/06/19 10:11:16;;;;;;;10.27;4.20;;;30.00;99.90;;;;;;4962071;29;20603;-81
2021/06/19 10:13:43;;;;;;;9.07;4.03;;;30.10;99.90;;;;;;4961849;29;20205;-82
2021/06/19 10:16:12;;;;;;;9.47;3.70;;;30.10;99.90;;;;;;4962154;29;20175;-82
2021/06/19 10:18:42;;;;;;;8.37;3.70;;;30.20;99.90;;;;;;4962457;29;20544;-82
2021/06/19 10:21:08;;;;;;;12.00;4.43;;;30.30;99.90;;;;;;4945201;29;20189;-82
2021/06/19 10:23:35;;;;;;;11.90;4.30;;;30.40;99.90;;;;;;4962237;29;20185;-82
2021/06/19 10:26:01;;;;;;;9.10;3.97;;;30.40;99.90;;;;;;4962046;29;20213;-82
2021/06/19 10:28:28;;;;;;;12.33;4.17;;;30.50;99.90;;;;;;4943658;29;20691;-82
2021/06/19 10:30:55;;;;;;;11.33;4.10;;;30.40;99.80;;;;;;4944882;29;20228;-81
2021/06/19 10:33:28;;;;;;;9.37;4.17;;;30.50;99.90;;;;;;4962710;29;20276;-82
2021/06/19 10:35:56;;;;;;;9.60;4.30;;;30.50;99.90;;;;;;4945622;29;20180;-82
2021/06/19 10:38:22;;;;;;;4.87;3.30;;;30.50;99.90;;;;;;4945543;29;20280;-83
2021/06/19 10:40:57;;;;;;;13.47;4.67;;;30.60;99.90;;;;;;4945567;29;20672;-81
2021/06/19 10:43:23;;;;;;;11.13;3.80;;;30.60;99.90;;;;;;4962920;29;20200;-81
2021/06/19 10:45:51;;;;;;;10.03;3.80;;;30.70;99.90;;;;;;4963414;29;20184;-82
2021/06/19 10:48:19;;;;;;;8.30;3.47;;;30.90;99.90;;;;;;4945343;28;20580;-82
2021/06/19 10:50:48;;;;;;;10.10;4.07;;;31.00;99.90;;;;;;4961693;29;20184;-81
2021/06/19 10:53:20;;;;;;;12.03;4.33;;;31.00;99.90;;;;;;4945647;29;20639;-82
2021/06/19 10:55:58;;;;;;;9.30;3.77;;;31.10;98.00;;;;;;4945778;29;20185;-82
2021/06/19 10:58:33;;;;;;;10.07;3.93;;;31.10;99.40;;;;;;4950668;29;20208;-82
2021/06/19 11:01:01;;;;;;;8.03;4.03;;;31.30;99.90;;;;;;4962462;29;20190;-82
2021/06/19 11:03:45;;;;;;;10.20;4.13;;;31.50;99.90;;;;;;4950561;29;20192;-82
2021/06/19 11:06:26;;;;;;;10.87;4.13;;;31.80;99.90;;;;;;4969864;29;20188;-82
2021/06/19 11:09:06;;;;;;;13.53;4.30;;;31.80;98.20;;;;;;4944794;29;20256;-82
2021/06/19 11:11:50;;;;;;;10.13;4.00;;;31.80;99.90;;;;;;4944285;29;20176;-81
2021/06/19 11:14:46;;;;;;;11.33;3.80;;;32.00;99.90;;;;;;4961429;29;20188;-82
2021/06/19 11:17:15;;;;;;;7.90;3.70;;;32.20;96.60;;;;;;4945709;29;20217;-81
2021/06/19 11:19:49;;;;;;;7.93;4.10;;;32.30;99.90;;;;;;4962548;29;20185;-81
2021/06/19 11:22:41;;;;;;;8.17;4.97;;;32.30;99.90;;;;;;4945097;29;20176;-81
2021/06/19 11:25:24;;;;;;;8.53;3.87;;;32.40;99.30;;;;;;4944842;29;20177;-82
2021/06/19 11:28:04;;;;;;;10.23;4.67;;;32.60;95.80;;;;;;4963377;29;20240;-81
2021/06/19 11:30:39;;;;;;;10.63;3.93;;;32.60;96.90;;;;;;4945912;29;20177;-81
2021/06/19 11:33:20;;;;;;;14.57;4.20;;;32.70;96.20;;;;;;4945687;29;20652;-81
2021/06/19 11:35:56;;;;;;;10.23;3.90;;;32.80;96.40;;;;;;4944685;29;20270;-80
2021/06/19 11:38:22;;;;;;;6.77;3.87;;;32.80;96.00;;;;;;4962524;29;20291;-81
2021/06/19 11:40:49;;;;;;;8.10;3.97;;;33.00;99.90;;;;;;4968577;29;20179;-81
2021/06/19 11:43:29;;;;;;;7.37;4.23;;;33.20;96.40;;;;;;4944268;29;20194;-82
2021/06/19 11:46:00;;;;;;;12.17;4.23;;;33.30;94.80;;;;;;4944621;29;20267;-83
2021/06/19 11:48:25;;;;;;;7.50;4.90;;;33.30;97.70;;;;;;4944457;29;20275;-82
2021/06/19 11:50:51;;;;;;;8.17;4.07;;;32.90;95.10;;;;;;4962497;29;20201;-82
2021/06/19 11:53:29;;;;;;;7.53;3.93;;;32.80;94.80;;;;;;4945046;29;20182;-81
2021/06/19 11:56:07;;;;;;;12.70;4.33;;;32.80;97.10;;;;;;4961525;29;20177;-81
2021/06/19 11:58:59;;;;;;;10.13;4.37;;;32.70;95.50;;;;;;4944083;29;20749;-81
2021/06/19 12:01:42;;;;;;;13.03;4.40;;;32.80;98.60;;;;;;4963252;28;20248;-82
2021/06/19 12:04:11;;;;;;;9.63;4.57;;;32.80;95.10;;;;;;4946727;29;20209;-81
2021/06/19 12:06:39;;;;;;;9.97;4.40;;;32.80;93.70;;;;;;4964158;29;20283;-79
2021/06/19 12:09:08;;;;;;;8.23;3.77;;;33.00;95.60;;;;;;4964096;29;20212;-82
2021/06/19 12:11:36;;;;;;;10.70;4.17;;;33.00;95.00;;;;;;4964359;29;20178;-81
2021/06/19 12:14:19;;;;;;;9.53;3.90;;;33.20;95.70;;;;;;4963653;29;20211;-82
2021/06/19 12:16:45;;;;;;;7.50;3.67;;;33.50;98.30;;;;;;4946717;29;20202;-81
2021/06/19 12:19:11;;;;;;;9.83;4.27;;;33.60;96.30;;;;;;4964350;29;20177;-82
2021/06/19 12:21:39;;;;;;;7.70;3.87;;;33.80;97.00;;;;;;4945890;29;20194;-82
2021/06/19 12:24:18;;;;;;;9.57;4.63;;;33.90;93.30;;;;;;4963706;29;20606;-83
2021/06/19 12:26:59;;;;;;;7.43;4.27;;;33.90;98.50;;;;;;4946710;29;20276;-82
2021/06/19 12:29:42;;;;;;;6.80;4.33;;;33.90;95.00;;;;;;4962914;29;20241;-83
2021/06/19 12:32:24;;;;;;;8.53;4.27;;;33.90;93.30;;;;;;4964226;29;20189;-82
2021/06/19 12:34:52;;;;;;;6.67;3.87;;;33.90;95.10;;;;;;4963080;29;20165;-82
2021/06/19 12:37:26;;;;;;;8.00;4.50;;;34.00;95.30;;;;;;4946481;29;20195;-82
2021/06/19 12:39:53;;;;;;;7.27;4.40;;;34.10;92.60;;;;;;4963635;29;20207;-82
2021/06/19 12:42:31;;;;;;;5.63;4.70;;;34.00;92.80;;;;;;4962865;29;20175;-82
2021/06/19 12:45:12;;;;;;;8.73;4.23;;;33.90;91.20;;;;;;4962706;29;20220;-81
2021/06/19 12:47:43;;;;;;;8.60;4.27;;;34.10;93.90;;;;;;4962073;29;20546;-82
2021/06/19 12:50:11;;;;;;;10.77;4.17;;;34.50;94.30;;;;;;4945172;29;20649;-82